sensor_id;sensor_type;location;lat;lon;timestamp;P1;durP1;ratioP1;P2;durP2;ratioP2
52180;SDS011;38158;53.338;6.514;2023-07-08T00:01:16;7.63;;;4.50;;
52180;SDS011;38158;53.338;6.514;2023-07-08T00:03:44;7.45;;;4.10;;
52180;SDS011;38158;53.338;6.514;2023-07-08T00:06:17;6.25;;;4.07;;
52180;SDS011;38158;53.338;6.514;2023-07-08T00:08:47;7.25;;;3.97;;
52180;SDS011;38158;53.338;6.514;2023-07-08T00:11:13;8.20;;;4.20;;
52180;SDS011;38158;53.338;6.514;2023-07-08T00:16:12;7.15;;;3.97;;
52180;SDS011;38158;53.338;6.514;2023-07-08T00:18:40;8.60;;;4.43;;
52180;SDS011;38158;53.338;6.514;2023-07-08T00:21:12;7.30;;;4.13;;
52180;SDS011;38158;53.338;6.514;2023-07-08T00:23:42;7.40;;;4.25;;
52180;SDS011;38158;53.338;6.514;2023-07-08T00:26:25;7.20;;;4.20;;
52180;SDS011;38158;53.338;6.514;2023-07-08T00:28:55;6.75;;;3.53;;
52180;SDS011;38158;53.338;6.514;2023-07-08T00:31:22;9.10;;;4.00;;
52180;SDS011;38158;53.338;6.514;2023-07-08T00:33:51;8.40;;;3.78;;
52180;SDS011;38158;53.338;6.514;2023-07-08T00:36:21;7.10;;;3.50;;
52180;SDS011;38158;53.338;6.514;2023-07-08T00:38:48;9.85;;;3.97;;
52180;SDS011;38158;53.338;6.514;2023-07-08T00:41:16;6.93;;;4.05;;
52180;SDS011;38158;53.338;6.514;2023-07-08T00:43:50;7.28;;;4.32;;
52180;SDS011;38158;53.338;6.514;2023-07-08T00:46:31;7.65;;;4.22;;
52180;SDS011;38158;53.338;6.514;2023-07-08T00:51:31;8.13;;;4.07;;
52180;SDS011;38158;53.338;6.514;2023-07-08T00:53:58;8.15;;;3.95;;
52180;SDS011;38158;53.338;6.514;2023-07-08T00:56:25;9.00;;;4.60;;
52180;SDS011;38158;53.338;6.514;2023-07-08T00:58:56;7.45;;;4.28;;
52180;SDS011;38158;53.338;6.514;2023-07-08T01:01:28;7.05;;;3.70;;
52180;SDS011;38158;53.338;6.514;2023-07-08T01:03:58;8.93;;;4.35;;
52180;SDS011;38158;53.338;6.514;2023-07-08T01:06:27;9.20;;;4.45;;
52180;SDS011;38158;53.338;6.514;2023-07-08T01:08:59;9.50;;;4.45;;
52180;SDS011;38158;53.338;6.514;2023-07-08T01:11:30;9.23;;;4.80;;
52180;SDS011;38158;53.338;6.514;2023-07-08T01:16:24;7.80;;;4.40;;
52180;SDS011;38158;53.338;6.514;2023-07-08T01:18:49;7.47;;;4.45;;
52180;SDS011;38158;53.338;6.514;2023-07-08T01:24:01;6.05;;;3.60;;
52180;SDS011;38158;53.338;6.514;2023-07-08T01:26:29;7.25;;;4.75;;
52180;SDS011;38158;53.338;6.514;2023-07-08T01:28:58;10.05;;;5.10;;
52180;SDS011;38158;53.338;6.514;2023-07-08T01:31:24;10.02;;;4.60;;
52180;SDS011;38158;53.338;6.514;2023-07-08T01:33:51;7.35;;;4.38;;
52180;SDS011;38158;53.338;6.514;2023-07-08T01:38:43;6.80;;;3.83;;
52180;SDS011;38158;53.338;6.514;2023-07-08T01:41:11;7.85;;;4.38;;
52180;SDS011;38158;53.338;6.514;2023-07-08T01:43:39;7.00;;;4.10;;
52180;SDS011;38158;53.338;6.514;2023-07-08T01:46:04;8.10;;;4.38;;
52180;SDS011;38158;53.338;6.514;2023-07-08T01:48:41;7.25;;;4.93;;
52180;SDS011;38158;53.338;6.514;2023-07-08T01:51:11;7.00;;;4.28;;
52180;SDS011;38158;53.338;6.514;2023-07-08T01:53:38;7.53;;;4.95;;
52180;SDS011;38158;53.338;6.514;2023-07-08T01:56:07;8.15;;;4.97;;
52180;SDS011;38158;53.338;6.514;2023-07-08T01:58:34;7.10;;;5.15;;
52180;SDS011;38158;53.338;6.514;2023-07-08T02:01:00;6.40;;;4.38;;
52180;SDS011;38158;53.338;6.514;2023-07-08T02:03:27;10.60;;;4.77;;
52180;SDS011;38158;53.338;6.514;2023-07-08T02:05:53;8.65;;;4.68;;
52180;SDS011;38158;53.338;6.514;2023-07-08T02:08:19;6.85;;;4.28;;
52180;SDS011;38158;53.338;6.514;2023-07-08T02:10:48;6.75;;;4.65;;
52180;SDS011;38158;53.338;6.514;2023-07-08T02:13:18;10.25;;;5.60;;
52180;SDS011;38158;53.338;6.514;2023-07-08T02:15:45;7.95;;;4.53;;
52180;SDS011;38158;53.338;6.514;2023-07-08T02:18:10;7.70;;;4.80;;
52180;SDS011;38158;53.338;6.514;2023-07-08T02:20:36;7.97;;;5.15;;
52180;SDS011;38158;53.338;6.514;2023-07-08T02:23:02;8.88;;;4.82;;
52180;SDS011;38158;53.338;6.514;2023-07-08T02:25:28;7.30;;;4.82;;
52180;SDS011;38158;53.338;6.514;2023-07-08T02:27:53;11.20;;;5.05;;
52180;SDS011;38158;53.338;6.514;2023-07-08T02:30:22;8.05;;;4.90;;
52180;SDS011;38158;53.338;6.514;2023-07-08T02:32:49;10.18;;;5.00;;
52180;SDS011;38158;53.338;6.514;2023-07-08T02:35:22;7.85;;;4.95;;
52180;SDS011;38158;53.338;6.514;2023-07-08T02:37:49;8.75;;;5.38;;
52180;SDS011;38158;53.338;6.514;2023-07-08T02:40:14;9.95;;;5.22;;
52180;SDS011;38158;53.338;6.514;2023-07-08T02:42:40;10.60;;;5.68;;
52180;SDS011;38158;53.338;6.514;2023-07-08T02:45:06;12.13;;;5.60;;
52180;SDS011;38158;53.338;6.514;2023-07-08T02:47:32;8.35;;;5.30;;
52180;SDS011;38158;53.338;6.514;2023-07-08T02:49:58;7.93;;;5.32;;
52180;SDS011;38158;53.338;6.514;2023-07-08T02:52:24;9.30;;;5.90;;
52180;SDS011;38158;53.338;6.514;2023-07-08T02:54:50;9.30;;;5.68;;
52180;SDS011;38158;53.338;6.514;2023-07-08T02:57:15;8.90;;;5.80;;
52180;SDS011;38158;53.338;6.514;2023-07-08T02:59:41;8.32;;;5.75;;
52180;SDS011;38158;53.338;6.514;2023-07-08T03:02:06;9.02;;;5.82;;
52180;SDS011;38158;53.338;6.514;2023-07-08T03:04:32;10.18;;;5.53;;
52180;SDS011;38158;53.338;6.514;2023-07-08T03:06:58;9.45;;;6.22;;
52180;SDS011;38158;53.338;6.514;2023-07-08T03:09:24;8.90;;;6.32;;
52180;SDS011;38158;53.338;6.514;2023-07-08T03:11:50;11.75;;;6.00;;
52180;SDS011;38158;53.338;6.514;2023-07-08T03:14:15;12.75;;;6.25;;
52180;SDS011;38158;53.338;6.514;2023-07-08T03:16:41;9.30;;;5.72;;
52180;SDS011;38158;53.338;6.514;2023-07-08T03:19:12;10.90;;;6.50;;
52180;SDS011;38158;53.338;6.514;2023-07-08T03:21:40;8.45;;;5.60;;
52180;SDS011;38158;53.338;6.514;2023-07-08T03:24:09;11.68;;;6.35;;
52180;SDS011;38158;53.338;6.514;2023-07-08T03:26:36;13.98;;;6.82;;
52180;SDS011;38158;53.338;6.514;2023-07-08T03:29:02;9.93;;;6.07;;
52180;SDS011;38158;53.338;6.514;2023-07-08T03:31:27;10.23;;;6.05;;
52180;SDS011;38158;53.338;6.514;2023-07-08T03:33:53;8.38;;;6.00;;
52180;SDS011;38158;53.338;6.514;2023-07-08T03:36:19;11.20;;;6.90;;
52180;SDS011;38158;53.338;6.514;2023-07-08T03:38:48;9.05;;;6.18;;
52180;SDS011;38158;53.338;6.514;2023-07-08T03:41:15;12.02;;;5.95;;
52180;SDS011;38158;53.338;6.514;2023-07-08T03:43:41;8.85;;;6.35;;
52180;SDS011;38158;53.338;6.514;2023-07-08T03:46:08;11.05;;;6.00;;
52180;SDS011;38158;53.338;6.514;2023-07-08T03:48:35;9.32;;;5.40;;
52180;SDS011;38158;53.338;6.514;2023-07-08T03:51:02;8.88;;;5.32;;
52180;SDS011;38158;53.338;6.514;2023-07-08T03:53:28;9.05;;;6.20;;
52180;SDS011;38158;53.338;6.514;2023-07-08T03:55:53;9.10;;;5.65;;
52180;SDS011;38158;53.338;6.514;2023-07-08T03:58:19;8.02;;;5.20;;
52180;SDS011;38158;53.338;6.514;2023-07-08T04:00:45;10.48;;;6.32;;
52180;SDS011;38158;53.338;6.514;2023-07-08T04:03:11;8.57;;;5.47;;
52180;SDS011;38158;53.338;6.514;2023-07-08T04:05:36;12.50;;;6.40;;
52180;SDS011;38158;53.338;6.514;2023-07-08T04:08:02;14.63;;;5.97;;
52180;SDS011;38158;53.338;6.514;2023-07-08T04:10:28;8.70;;;5.95;;
52180;SDS011;38158;53.338;6.514;2023-07-08T04:12:54;13.23;;;5.38;;
52180;SDS011;38158;53.338;6.514;2023-07-08T04:15:20;8.25;;;5.65;;
52180;SDS011;38158;53.338;6.514;2023-07-08T04:17:50;10.48;;;6.18;;
52180;SDS011;38158;53.338;6.514;2023-07-08T04:20:17;8.97;;;5.57;;
52180;SDS011;38158;53.338;6.514;2023-07-08T04:25:10;12.15;;;5.88;;
52180;SDS011;38158;53.338;6.514;2023-07-08T04:27:37;9.43;;;5.70;;
52180;SDS011;38158;53.338;6.514;2023-07-08T04:30:04;11.65;;;5.97;;
52180;SDS011;38158;53.338;6.514;2023-07-08T04:32:31;9.77;;;6.13;;
52180;SDS011;38158;53.338;6.514;2023-07-08T04:34:56;9.48;;;6.25;;
52180;SDS011;38158;53.338;6.514;2023-07-08T04:37:22;8.20;;;5.70;;
52180;SDS011;38158;53.338;6.514;2023-07-08T04:39:48;11.10;;;5.47;;
52180;SDS011;38158;53.338;6.514;2023-07-08T04:42:14;8.48;;;6.00;;
52180;SDS011;38158;53.338;6.514;2023-07-08T04:44:42;7.68;;;5.53;;
52180;SDS011;38158;53.338;6.514;2023-07-08T04:47:09;10.60;;;5.43;;
52180;SDS011;38158;53.338;6.514;2023-07-08T04:49:37;8.10;;;5.13;;
52180;SDS011;38158;53.338;6.514;2023-07-08T04:52:03;8.43;;;5.93;;
52180;SDS011;38158;53.338;6.514;2023-07-08T04:54:29;10.95;;;5.50;;
52180;SDS011;38158;53.338;6.514;2023-07-08T04:56:55;10.02;;;6.53;;
52180;SDS011;38158;53.338;6.514;2023-07-08T04:59:22;8.73;;;5.65;;
52180;SDS011;38158;53.338;6.514;2023-07-08T05:01:49;7.47;;;5.30;;
52180;SDS011;38158;53.338;6.514;2023-07-08T05:04:18;7.32;;;5.30;;
52180;SDS011;38158;53.338;6.514;2023-07-08T05:06:45;10.98;;;5.65;;
52180;SDS011;38158;53.338;6.514;2023-07-08T05:09:11;8.35;;;5.45;;
52180;SDS011;38158;53.338;6.514;2023-07-08T05:11:36;11.25;;;6.03;;
52180;SDS011;38158;53.338;6.514;2023-07-08T05:14:03;9.40;;;5.63;;
52180;SDS011;38158;53.338;6.514;2023-07-08T05:16:29;9.13;;;5.60;;
52180;SDS011;38158;53.338;6.514;2023-07-08T05:18:55;8.45;;;5.03;;
52180;SDS011;38158;53.338;6.514;2023-07-08T05:21:20;9.40;;;5.68;;
52180;SDS011;38158;53.338;6.514;2023-07-08T05:23:47;9.98;;;5.70;;
52180;SDS011;38158;53.338;6.514;2023-07-08T05:26:16;9.30;;;5.32;;
52180;SDS011;38158;53.338;6.514;2023-07-08T05:28:42;7.18;;;5.53;;
52180;SDS011;38158;53.338;6.514;2023-07-08T05:31:08;7.95;;;4.68;;
52180;SDS011;38158;53.338;6.514;2023-07-08T05:33:34;11.10;;;5.47;;
52180;SDS011;38158;53.338;6.514;2023-07-08T05:36:00;10.73;;;5.50;;
52180;SDS011;38158;53.338;6.514;2023-07-08T05:38:26;9.63;;;5.50;;
52180;SDS011;38158;53.338;6.514;2023-07-08T05:40:56;9.43;;;5.45;;
52180;SDS011;38158;53.338;6.514;2023-07-08T05:43:24;10.63;;;4.93;;
52180;SDS011;38158;53.338;6.514;2023-07-08T05:45:51;7.18;;;4.88;;
52180;SDS011;38158;53.338;6.514;2023-07-08T05:48:17;12.80;;;5.10;;
52180;SDS011;38158;53.338;6.514;2023-07-08T05:50:44;7.93;;;4.57;;
52180;SDS011;38158;53.338;6.514;2023-07-08T05:53:11;9.38;;;5.10;;
52180;SDS011;38158;53.338;6.514;2023-07-08T05:55:37;6.50;;;4.00;;
52180;SDS011;38158;53.338;6.514;2023-07-08T05:58:03;7.47;;;4.53;;
52180;SDS011;38158;53.338;6.514;2023-07-08T06:00:29;7.60;;;4.28;;
52180;SDS011;38158;53.338;6.514;2023-07-08T06:02:54;7.85;;;3.80;;
52180;SDS011;38158;53.338;6.514;2023-07-08T06:05:20;9.95;;;4.28;;
52180;SDS011;38158;53.338;6.514;2023-07-08T06:07:46;7.53;;;4.05;;
52180;SDS011;38158;53.338;6.514;2023-07-08T06:10:11;8.25;;;4.03;;
52180;SDS011;38158;53.338;6.514;2023-07-08T06:12:37;8.95;;;3.72;;
52180;SDS011;38158;53.338;6.514;2023-07-08T06:15:03;8.20;;;4.15;;
52180;SDS011;38158;53.338;6.514;2023-07-08T06:17:29;8.50;;;4.22;;
52180;SDS011;38158;53.338;6.514;2023-07-08T06:19:54;5.95;;;3.35;;
52180;SDS011;38158;53.338;6.514;2023-07-08T06:22:20;6.65;;;3.92;;
52180;SDS011;38158;53.338;6.514;2023-07-08T06:24:46;5.72;;;3.67;;
52180;SDS011;38158;53.338;6.514;2023-07-08T06:27:12;5.65;;;3.72;;
52180;SDS011;38158;53.338;6.514;2023-07-08T06:29:38;7.03;;;4.57;;
52180;SDS011;38158;53.338;6.514;2023-07-08T06:32:04;6.03;;;3.38;;
52180;SDS011;38158;53.338;6.514;2023-07-08T06:34:31;6.57;;;3.83;;
52180;SDS011;38158;53.338;6.514;2023-07-08T06:36:56;5.32;;;4.10;;
52180;SDS011;38158;53.338;6.514;2023-07-08T06:39:22;6.60;;;4.20;;
52180;SDS011;38158;53.338;6.514;2023-07-08T06:41:48;7.22;;;3.97;;
52180;SDS011;38158;53.338;6.514;2023-07-08T06:44:14;7.65;;;4.30;;
52180;SDS011;38158;53.338;6.514;2023-07-08T06:46:39;12.20;;;3.97;;
52180;SDS011;38158;53.338;6.514;2023-07-08T06:49:05;7.32;;;4.00;;
52180;SDS011;38158;53.338;6.514;2023-07-08T06:51:34;12.95;;;3.92;;
52180;SDS011;38158;53.338;6.514;2023-07-08T06:54:00;7.07;;;3.55;;
52180;SDS011;38158;53.338;6.514;2023-07-08T06:56:30;6.93;;;3.25;;
52180;SDS011;38158;53.338;6.514;2023-07-08T06:58:56;5.38;;;3.25;;
52180;SDS011;38158;53.338;6.514;2023-07-08T07:01:22;8.40;;;3.03;;
52180;SDS011;38158;53.338;6.514;2023-07-08T07:03:49;5.75;;;3.13;;
52180;SDS011;38158;53.338;6.514;2023-07-08T07:06:15;6.43;;;3.60;;
52180;SDS011;38158;53.338;6.514;2023-07-08T07:08:42;5.82;;;3.05;;
52180;SDS011;38158;53.338;6.514;2023-07-08T07:11:07;6.28;;;3.10;;
52180;SDS011;38158;53.338;6.514;2023-07-08T07:13:33;8.30;;;3.22;;
52180;SDS011;38158;53.338;6.514;2023-07-08T07:15:59;7.78;;;3.28;;
52180;SDS011;38158;53.338;6.514;2023-07-08T07:18:24;5.78;;;2.85;;
52180;SDS011;38158;53.338;6.514;2023-07-08T07:20:53;7.68;;;3.38;;
52180;SDS011;38158;53.338;6.514;2023-07-08T07:23:19;5.20;;;2.90;;
52180;SDS011;38158;53.338;6.514;2023-07-08T07:25:45;7.30;;;3.38;;
52180;SDS011;38158;53.338;6.514;2023-07-08T07:28:14;7.57;;;3.05;;
52180;SDS011;38158;53.338;6.514;2023-07-08T07:30:42;5.53;;;2.92;;
52180;SDS011;38158;53.338;6.514;2023-07-08T07:33:09;6.47;;;3.25;;
52180;SDS011;38158;53.338;6.514;2023-07-08T07:35:35;4.85;;;2.80;;
52180;SDS011;38158;53.338;6.514;2023-07-08T07:38:00;4.65;;;2.78;;
52180;SDS011;38158;53.338;6.514;2023-07-08T07:40:26;4.60;;;2.50;;
52180;SDS011;38158;53.338;6.514;2023-07-08T07:42:52;8.07;;;3.30;;
52180;SDS011;38158;53.338;6.514;2023-07-08T07:45:17;5.82;;;3.15;;
52180;SDS011;38158;53.338;6.514;2023-07-08T07:47:47;4.82;;;3.03;;
52180;SDS011;38158;53.338;6.514;2023-07-08T07:50:13;4.80;;;2.75;;
52180;SDS011;38158;53.338;6.514;2023-07-08T07:52:39;7.63;;;2.67;;
52180;SDS011;38158;53.338;6.514;2023-07-08T07:57:32;5.78;;;2.85;;
52180;SDS011;38158;53.338;6.514;2023-07-08T07:59:57;7.53;;;3.10;;
52180;SDS011;38158;53.338;6.514;2023-07-08T08:02:23;7.43;;;2.58;;
52180;SDS011;38158;53.338;6.514;2023-07-08T08:04:49;6.18;;;2.92;;
52180;SDS011;38158;53.338;6.514;2023-07-08T08:07:14;6.05;;;2.80;;
52180;SDS011;38158;53.338;6.514;2023-07-08T08:09:40;4.53;;;2.60;;
52180;SDS011;38158;53.338;6.514;2023-07-08T08:12:07;7.10;;;2.60;;
52180;SDS011;38158;53.338;6.514;2023-07-08T08:14:34;5.43;;;2.28;;
52180;SDS011;38158;53.338;6.514;2023-07-08T08:17:00;4.03;;;2.40;;
52180;SDS011;38158;53.338;6.514;2023-07-08T08:19:26;7.28;;;2.60;;
52180;SDS011;38158;53.338;6.514;2023-07-08T08:21:51;7.85;;;2.42;;
52180;SDS011;38158;53.338;6.514;2023-07-08T08:24:17;5.20;;;2.22;;
52180;SDS011;38158;53.338;6.514;2023-07-08T08:26:43;5.03;;;2.17;;
52180;SDS011;38158;53.338;6.514;2023-07-08T08:29:08;7.40;;;2.23;;
52180;SDS011;38158;53.338;6.514;2023-07-08T08:31:34;6.60;;;2.13;;
52180;SDS011;38158;53.338;6.514;2023-07-08T08:34:00;5.03;;;2.23;;
52180;SDS011;38158;53.338;6.514;2023-07-08T08:36:25;4.17;;;2.33;;
52180;SDS011;38158;53.338;6.514;2023-07-08T08:38:51;3.57;;;2.03;;
52180;SDS011;38158;53.338;6.514;2023-07-08T08:41:18;3.50;;;2.10;;
52180;SDS011;38158;53.338;6.514;2023-07-08T08:43:49;7.72;;;2.70;;
52180;SDS011;38158;53.338;6.514;2023-07-08T08:49:02;6.03;;;2.20;;
52180;SDS011;38158;53.338;6.514;2023-07-08T08:51:38;5.20;;;1.95;;
52180;SDS011;38158;53.338;6.514;2023-07-08T08:54:04;6.43;;;2.20;;
52180;SDS011;38158;53.338;6.514;2023-07-08T09:01:44;4.85;;;1.83;;
52180;SDS011;38158;53.338;6.514;2023-07-08T09:06:40;3.55;;;2.00;;
52180;SDS011;38158;53.338;6.514;2023-07-08T09:09:12;6.00;;;2.40;;
52180;SDS011;38158;53.338;6.514;2023-07-08T09:12:06;3.50;;;2.10;;
52180;SDS011;38158;53.338;6.514;2023-07-08T09:14:38;4.63;;;2.17;;
52180;SDS011;38158;53.338;6.514;2023-07-08T09:19:43;6.07;;;2.05;;
52180;SDS011;38158;53.338;6.514;2023-07-08T09:22:20;4.82;;;2.35;;
52180;SDS011;38158;53.338;6.514;2023-07-08T09:24:59;5.35;;;2.58;;
52180;SDS011;38158;53.338;6.514;2023-07-08T09:27:46;4.15;;;2.40;;
52180;SDS011;38158;53.338;6.514;2023-07-08T09:30:17;4.43;;;2.10;;
52180;SDS011;38158;53.338;6.514;2023-07-08T09:32:48;6.80;;;2.65;;
52180;SDS011;38158;53.338;6.514;2023-07-08T09:35:19;8.52;;;2.25;;
52180;SDS011;38158;53.338;6.514;2023-07-08T09:37:51;5.10;;;2.20;;
52180;SDS011;38158;53.338;6.514;2023-07-08T09:42:49;4.03;;;2.03;;
52180;SDS011;38158;53.338;6.514;2023-07-08T09:45:19;6.97;;;2.38;;
52180;SDS011;38158;53.338;6.514;2023-07-08T09:47:46;4.90;;;2.05;;
52180;SDS011;38158;53.338;6.514;2023-07-08T09:50:31;4.53;;;2.17;;
52180;SDS011;38158;53.338;6.514;2023-07-08T09:53:00;4.13;;;2.33;;
52180;SDS011;38158;53.338;6.514;2023-07-08T09:55:26;3.83;;;2.40;;
52180;SDS011;38158;53.338;6.514;2023-07-08T09:57:53;5.40;;;2.17;;
52180;SDS011;38158;53.338;6.514;2023-07-08T10:00:31;3.47;;;1.95;;
52180;SDS011;38158;53.338;6.514;2023-07-08T10:03:10;4.72;;;2.40;;
52180;SDS011;38158;53.338;6.514;2023-07-08T10:05:42;4.07;;;1.92;;
52180;SDS011;38158;53.338;6.514;2023-07-08T10:08:13;4.45;;;2.15;;
52180;SDS011;38158;53.338;6.514;2023-07-08T10:10:45;4.05;;;2.28;;
52180;SDS011;38158;53.338;6.514;2023-07-08T10:13:27;3.30;;;1.95;;
52180;SDS011;38158;53.338;6.514;2023-07-08T10:18:47;3.83;;;2.05;;
52180;SDS011;38158;53.338;6.514;2023-07-08T10:23:56;4.03;;;2.28;;
52180;SDS011;38158;53.338;6.514;2023-07-08T10:26:36;5.13;;;2.47;;
52180;SDS011;38158;53.338;6.514;2023-07-08T10:40:18;4.22;;;2.22;;
52180;SDS011;38158;53.338;6.514;2023-07-08T10:45:27;4.57;;;2.60;;
52180;SDS011;38158;53.338;6.514;2023-07-08T10:56:20;5.68;;;2.50;;
52180;SDS011;38158;53.338;6.514;2023-07-08T11:07:55;5.80;;;2.50;;
52180;SDS011;38158;53.338;6.514;2023-07-08T11:10:29;3.57;;;2.13;;
52180;SDS011;38158;53.338;6.514;2023-07-08T11:13:02;4.57;;;2.35;;
52180;SDS011;38158;53.338;6.514;2023-07-08T11:16:35;4.60;;;2.40;;
52180;SDS011;38158;53.338;6.514;2023-07-08T11:18:40;4.80;;;2.30;;
52180;SDS011;38158;53.338;6.514;2023-07-08T11:21:20;5.63;;;2.17;;
52180;SDS011;38158;53.338;6.514;2023-07-08T11:23:59;4.83;;;2.20;;
52180;SDS011;38158;53.338;6.514;2023-07-08T11:26:33;5.13;;;2.22;;
52180;SDS011;38158;53.338;6.514;2023-07-08T11:29:19;5.90;;;2.13;;
52180;SDS011;38158;53.338;6.514;2023-07-08T11:31:47;5.47;;;2.58;;
52180;SDS011;38158;53.338;6.514;2023-07-08T11:34:15;4.43;;;2.15;;
52180;SDS011;38158;53.338;6.514;2023-07-08T11:36:43;6.47;;;2.30;;
52180;SDS011;38158;53.338;6.514;2023-07-08T11:44:46;6.63;;;2.58;;
52180;SDS011;38158;53.338;6.514;2023-07-08T11:47:37;5.80;;;2.17;;
52180;SDS011;38158;53.338;6.514;2023-07-08T11:50:51;5.28;;;2.08;;
52180;SDS011;38158;53.338;6.514;2023-07-08T12:00:54;5.00;;;2.33;;
52180;SDS011;38158;53.338;6.514;2023-07-08T12:03:28;6.43;;;2.38;;
52180;SDS011;38158;53.338;6.514;2023-07-08T12:05:59;4.95;;;2.42;;
52180;SDS011;38158;53.338;6.514;2023-07-08T12:08:35;5.47;;;2.55;;
52180;SDS011;38158;53.338;6.514;2023-07-08T12:11:10;6.18;;;2.33;;
52180;SDS011;38158;53.338;6.514;2023-07-08T12:13:37;5.78;;;2.40;;
52180;SDS011;38158;53.338;6.514;2023-07-08T12:16:07;4.78;;;2.00;;
52180;SDS011;38158;53.338;6.514;2023-07-08T12:18:38;6.68;;;2.55;;
52180;SDS011;38158;53.338;6.514;2023-07-08T12:21:11;4.72;;;2.47;;
52180;SDS011;38158;53.338;6.514;2023-07-08T12:23:43;6.00;;;2.70;;
52180;SDS011;38158;53.338;6.514;2023-07-08T12:26:12;6.75;;;2.80;;
52180;SDS011;38158;53.338;6.514;2023-07-08T12:28:39;4.50;;;2.22;;
52180;SDS011;38158;53.338;6.514;2023-07-08T12:31:15;5.88;;;2.78;;
52180;SDS011;38158;53.338;6.514;2023-07-08T12:33:43;4.80;;;2.50;;
52180;SDS011;38158;53.338;6.514;2023-07-08T12:36:15;4.40;;;2.47;;
52180;SDS011;38158;53.338;6.514;2023-07-08T12:38:44;5.20;;;2.55;;
52180;SDS011;38158;53.338;6.514;2023-07-08T12:41:18;4.80;;;2.60;;
52180;SDS011;38158;53.338;6.514;2023-07-08T12:43:46;5.07;;;2.90;;
52180;SDS011;38158;53.338;6.514;2023-07-08T12:46:13;4.22;;;2.30;;
52180;SDS011;38158;53.338;6.514;2023-07-08T12:48:41;6.65;;;2.70;;
52180;SDS011;38158;53.338;6.514;2023-07-08T12:51:11;5.20;;;2.43;;
52180;SDS011;38158;53.338;6.514;2023-07-08T12:53:38;4.43;;;2.65;;
52180;SDS011;38158;53.338;6.514;2023-07-08T12:56:05;5.13;;;2.50;;
52180;SDS011;38158;53.338;6.514;2023-07-08T12:58:32;5.80;;;3.15;;
52180;SDS011;38158;53.338;6.514;2023-07-08T13:01:04;6.03;;;2.95;;
52180;SDS011;38158;53.338;6.514;2023-07-08T13:03:34;5.03;;;2.70;;
52180;SDS011;38158;53.338;6.514;2023-07-08T13:06:03;5.78;;;3.10;;
52180;SDS011;38158;53.338;6.514;2023-07-08T13:08:30;4.22;;;2.45;;
52180;SDS011;38158;53.338;6.514;2023-07-08T13:11:00;5.32;;;2.90;;
52180;SDS011;38158;53.338;6.514;2023-07-08T13:13:30;5.32;;;2.83;;
52180;SDS011;38158;53.338;6.514;2023-07-08T13:15:59;4.25;;;2.35;;
52180;SDS011;38158;53.338;6.514;2023-07-08T13:20:59;5.05;;;2.70;;
52180;SDS011;38158;53.338;6.514;2023-07-08T13:23:26;5.03;;;2.95;;
52180;SDS011;38158;53.338;6.514;2023-07-08T13:25:53;5.15;;;3.00;;
52180;SDS011;38158;53.338;6.514;2023-07-08T13:28:23;5.03;;;2.78;;
52180;SDS011;38158;53.338;6.514;2023-07-08T13:30:57;6.05;;;2.83;;
52180;SDS011;38158;53.338;6.514;2023-07-08T13:33:29;5.68;;;2.97;;
52180;SDS011;38158;53.338;6.514;2023-07-08T13:35:56;4.65;;;2.63;;
52180;SDS011;38158;53.338;6.514;2023-07-08T13:38:22;5.15;;;2.72;;
52180;SDS011;38158;53.338;6.514;2023-07-08T13:40:54;4.50;;;2.70;;
52180;SDS011;38158;53.338;6.514;2023-07-08T13:43:25;5.78;;;3.20;;
52180;SDS011;38158;53.338;6.514;2023-07-08T13:45:53;6.60;;;3.25;;
52180;SDS011;38158;53.338;6.514;2023-07-08T13:48:52;5.85;;;3.08;;
52180;SDS011;38158;53.338;6.514;2023-07-08T13:51:17;5.70;;;2.65;;
52180;SDS011;38158;53.338;6.514;2023-07-08T13:53:49;4.95;;;2.88;;
52180;SDS011;38158;53.338;6.514;2023-07-08T13:56:21;7.32;;;2.85;;
52180;SDS011;38158;53.338;6.514;2023-07-08T13:59:04;6.15;;;2.70;;
52180;SDS011;38158;53.338;6.514;2023-07-08T14:01:33;6.03;;;3.17;;
52180;SDS011;38158;53.338;6.514;2023-07-08T14:04:02;4.97;;;3.05;;
52180;SDS011;38158;53.338;6.514;2023-07-08T14:08:56;4.68;;;3.05;;
52180;SDS011;38158;53.338;6.514;2023-07-08T14:11:23;6.68;;;3.15;;
52180;SDS011;38158;53.338;6.514;2023-07-08T14:13:48;5.82;;;3.15;;
52180;SDS011;38158;53.338;6.514;2023-07-08T14:16:24;6.10;;;3.83;;
52180;SDS011;38158;53.338;6.514;2023-07-08T14:18:53;6.93;;;3.75;;
52180;SDS011;38158;53.338;6.514;2023-07-08T14:21:23;6.72;;;3.85;;
52180;SDS011;38158;53.338;6.514;2023-07-08T14:23:49;7.25;;;3.67;;
52180;SDS011;38158;53.338;6.514;2023-07-08T14:26:15;8.57;;;4.57;;
52180;SDS011;38158;53.338;6.514;2023-07-08T14:28:40;6.18;;;4.60;;
52180;SDS011;38158;53.338;6.514;2023-07-08T14:31:09;6.57;;;4.33;;
52180;SDS011;38158;53.338;6.514;2023-07-08T14:33:37;7.57;;;5.10;;
52180;SDS011;38158;53.338;6.514;2023-07-08T14:36:07;8.43;;;5.50;;
52180;SDS011;38158;53.338;6.514;2023-07-08T14:38:35;9.40;;;4.55;;
52180;SDS011;38158;53.338;6.514;2023-07-08T14:41:02;6.57;;;4.32;;
52180;SDS011;38158;53.338;6.514;2023-07-08T14:43:28;7.00;;;4.50;;
52180;SDS011;38158;53.338;6.514;2023-07-08T14:45:56;6.80;;;4.28;;
52180;SDS011;38158;53.338;6.514;2023-07-08T14:48:24;8.20;;;4.07;;
52180;SDS011;38158;53.338;6.514;2023-07-08T14:50:52;5.53;;;3.70;;
52180;SDS011;38158;53.338;6.514;2023-07-08T14:53:18;6.18;;;4.05;;
52180;SDS011;38158;53.338;6.514;2023-07-08T14:55:44;7.32;;;3.88;;
52180;SDS011;38158;53.338;6.514;2023-07-08T14:58:25;6.55;;;3.80;;
52180;SDS011;38158;53.338;6.514;2023-07-08T15:00:56;7.55;;;3.65;;
52180;SDS011;38158;53.338;6.514;2023-07-08T15:03:23;5.55;;;3.45;;
52180;SDS011;38158;53.338;6.514;2023-07-08T15:05:49;7.88;;;4.30;;
52180;SDS011;38158;53.338;6.514;2023-07-08T15:08:15;9.23;;;4.15;;
52180;SDS011;38158;53.338;6.514;2023-07-08T15:10:43;7.75;;;4.28;;
52180;SDS011;38158;53.338;6.514;2023-07-08T15:13:12;6.47;;;3.85;;
52180;SDS011;38158;53.338;6.514;2023-07-08T15:15:37;9.88;;;3.90;;
52180;SDS011;38158;53.338;6.514;2023-07-08T15:18:11;7.97;;;3.90;;
52180;SDS011;38158;53.338;6.514;2023-07-08T15:20:39;5.00;;;3.30;;
52180;SDS011;38158;53.338;6.514;2023-07-08T15:23:05;8.18;;;4.47;;
52180;SDS011;38158;53.338;6.514;2023-07-08T15:25:33;5.85;;;3.65;;
52180;SDS011;38158;53.338;6.514;2023-07-08T15:30:27;9.43;;;4.47;;
52180;SDS011;38158;53.338;6.514;2023-07-08T15:32:54;7.93;;;4.50;;
52180;SDS011;38158;53.338;6.514;2023-07-08T15:37:55;6.32;;;3.20;;
52180;SDS011;38158;53.338;6.514;2023-07-08T15:40:21;6.60;;;3.38;;
52180;SDS011;38158;53.338;6.514;2023-07-08T15:42:53;6.82;;;4.75;;
52180;SDS011;38158;53.338;6.514;2023-07-08T15:45:22;7.07;;;3.78;;
52180;SDS011;38158;53.338;6.514;2023-07-08T15:47:49;8.27;;;4.20;;
52180;SDS011;38158;53.338;6.514;2023-07-08T15:50:16;5.57;;;3.88;;
52180;SDS011;38158;53.338;6.514;2023-07-08T15:52:45;6.25;;;4.13;;
52180;SDS011;38158;53.338;6.514;2023-07-08T15:55:12;5.78;;;3.75;;
52180;SDS011;38158;53.338;6.514;2023-07-08T15:57:49;7.35;;;3.90;;
52180;SDS011;38158;53.338;6.514;2023-07-08T16:00:39;6.40;;;3.40;;
52180;SDS011;38158;53.338;6.514;2023-07-08T16:03:27;6.15;;;4.15;;
52180;SDS011;38158;53.338;6.514;2023-07-08T16:05:54;6.75;;;3.55;;
52180;SDS011;38158;53.338;6.514;2023-07-08T16:08:21;5.53;;;3.63;;
52180;SDS011;38158;53.338;6.514;2023-07-08T16:10:51;6.63;;;4.35;;
52180;SDS011;38158;53.338;6.514;2023-07-08T16:13:31;7.20;;;4.10;;
52180;SDS011;38158;53.338;6.514;2023-07-08T16:16:00;6.13;;;4.13;;
52180;SDS011;38158;53.338;6.514;2023-07-08T16:18:27;7.07;;;3.72;;
52180;SDS011;38158;53.338;6.514;2023-07-08T16:20:53;6.10;;;3.90;;
52180;SDS011;38158;53.338;6.514;2023-07-08T16:23:18;7.10;;;3.72;;
52180;SDS011;38158;53.338;6.514;2023-07-08T16:25:45;6.57;;;3.95;;
52180;SDS011;38158;53.338;6.514;2023-07-08T16:28:30;6.32;;;3.97;;